createdAt,value
2022-10-18T00:01:13.091Z,15.30
2022-10-18T00:04:34.781Z,16.63
2022-10-18T00:08:01.154Z,17.20
2022-10-18T00:11:25.324Z,17.73
2022-10-18T00:14:50.561Z,26.33
2022-10-18T00:18:12.114Z,22.23
2022-10-18T00:21:33.657Z,17.70
2022-10-18T00:24:55.218Z,19.40
2022-10-18T00:28:16.733Z,21.67
2022-10-18T00:31:38.571Z,19.98
2022-10-18T00:35:00.067Z,14.65
2022-10-18T00:38:21.633Z,21.48
2022-10-18T00:41:43.757Z,22.08
2022-10-18T00:45:15.412Z,18.30
2022-10-18T00:48:36.947Z,18.40
2022-10-18T00:52:09.001Z,17.90
2022-10-18T00:55:32.605Z,20.30
2022-10-18T00:58:54.414Z,18.60
2022-10-18T01:02:18.330Z,20.40
2022-10-18T01:05:46.959Z,21.77
2022-10-18T01:13:08.490Z,18.42
2022-10-18T01:16:36.772Z,16.50
2022-10-18T01:20:04.104Z,16.80
2022-10-18T01:24:07.484Z,17.38
2022-10-18T01:27:43.011Z,17.20
2022-10-18T01:31:12.023Z,17.17
2022-10-18T01:34:40.045Z,16.98
2022-10-18T01:38:07.273Z,18.60
2022-10-18T01:41:29.725Z,20.30
2022-10-18T01:44:52.628Z,16.05
2022-10-18T01:48:16.682Z,19.50
2022-10-18T01:51:38.183Z,18.90
2022-10-18T01:55:00.715Z,17.95
2022-10-18T01:58:36.979Z,22.02
2022-10-18T02:02:28.176Z,19.00
2022-10-18T02:06:00.530Z,17.80
2022-10-18T02:09:43.688Z,16.10
2022-10-18T02:13:05.315Z,20.30
2022-10-18T02:16:34.767Z,20.50
2022-10-18T02:20:01.022Z,17.90
2022-10-18T02:23:24.844Z,17.70
2022-10-18T02:26:48.556Z,21.50
2022-10-18T02:30:10.720Z,25.42
2022-10-18T02:33:37.227Z,21.17
2022-10-18T02:37:00.860Z,19.08
2022-10-18T02:40:22.899Z,20.27
2022-10-18T02:43:46.717Z,20.00
2022-10-18T02:47:12.285Z,23.52
2022-10-18T02:50:36.060Z,23.20
2022-10-18T02:53:57.558Z,21.77
2022-10-18T02:57:24.152Z,20.70
2022-10-18T03:00:48.330Z,18.67
2022-10-18T03:04:10.523Z,19.27
2022-10-18T03:07:34.505Z,21.85
2022-10-18T03:11:01.041Z,17.85
2022-10-18T03:14:22.637Z,20.45
2022-10-18T03:17:46.643Z,18.80
2022-10-18T03:21:11.519Z,21.30
2022-10-18T03:24:33.096Z,18.58
2022-10-18T03:27:57.626Z,18.40
2022-10-18T03:31:21.839Z,18.90
2022-10-18T03:34:48.226Z,27.23
2022-10-18T03:38:09.788Z,19.35
2022-10-18T03:41:33.532Z,28.45
2022-10-18T03:44:55.139Z,20.65
2022-10-18T03:48:16.660Z,21.30
2022-10-18T03:51:38.170Z,18.13
2022-10-18T03:54:59.675Z,24.35
2022-10-18T03:58:27.018Z,23.15
2022-10-18T04:01:48.877Z,28.33
2022-10-18T04:05:10.809Z,26.70
2022-10-18T04:08:34.656Z,25.55
2022-10-18T04:11:56.193Z,20.60
2022-10-18T04:15:17.744Z,21.50
2022-10-18T04:18:39.288Z,27.30
2022-10-18T04:22:00.834Z,18.85
2022-10-18T04:25:22.492Z,24.60
2022-10-18T04:28:44.722Z,23.80
2022-10-18T04:32:06.430Z,18.63
2022-10-18T04:35:30.348Z,20.92
2022-10-18T04:38:51.902Z,23.80
2022-10-18T04:42:13.445Z,20.00
2022-10-18T04:45:35.073Z,24.17
2022-10-18T04:48:56.657Z,24.92
2022-10-18T04:52:20.524Z,23.67
2022-10-18T04:55:49.490Z,22.15
2022-10-18T04:59:16.305Z,33.33
2022-10-18T05:02:37.822Z,27.52
2022-10-18T05:06:02.699Z,21.23
2022-10-18T05:09:27.233Z,25.40
2022-10-18T05:12:51.131Z,23.08
2022-10-18T05:16:16.044Z,17.67
2022-10-18T05:19:39.952Z,27.10
2022-10-18T05:23:01.458Z,20.48
2022-10-18T05:26:25.060Z,20.92
2022-10-18T05:29:46.651Z,24.08
2022-10-18T05:33:08.904Z,21.10
2022-10-18T05:36:30.592Z,28.00
2022-10-18T05:39:55.185Z,24.30
2022-10-18T05:43:21.931Z,35.15
2022-10-18T05:46:50.516Z,25.60
2022-10-18T05:50:12.140Z,22.45
2022-10-18T05:53:37.848Z,28.13
2022-10-18T05:56:59.855Z,24.20
2022-10-18T06:00:23.735Z,32.38
2022-10-18T06:03:45.306Z,28.70
2022-10-18T06:07:11.449Z,23.50
2022-10-18T06:10:33.614Z,20.75
2022-10-18T06:13:55.198Z,21.13
2022-10-18T06:17:19.301Z,24.85
2022-10-18T06:20:40.893Z,23.23
2022-10-18T06:24:02.609Z,21.40
2022-10-18T06:27:26.466Z,20.55
2022-10-18T06:30:47.995Z,25.52
2022-10-18T06:34:12.237Z,19.85
2022-10-18T06:37:35.570Z,19.27
2022-10-18T06:41:00.808Z,20.42
2022-10-18T06:44:24.913Z,20.95
2022-10-18T06:47:46.434Z,17.45
2022-10-18T06:51:08.785Z,23.80
2022-10-18T06:54:30.326Z,29.75
2022-10-18T06:57:53.276Z,23.98
2022-10-18T07:01:17.135Z,19.65
2022-10-18T07:04:41.798Z,24.55
2022-10-18T07:08:05.973Z,20.95
2022-10-18T07:11:27.660Z,21.58
2022-10-18T07:14:49.228Z,23.58
2022-10-18T07:18:11.169Z,19.40
2022-10-18T07:21:35.060Z,21.55
2022-10-18T07:24:56.579Z,23.25
2022-10-18T07:28:20.654Z,20.98
2022-10-18T07:31:44.286Z,18.27
2022-10-18T07:35:08.550Z,19.48
2022-10-18T07:38:37.973Z,19.02
2022-10-18T07:41:59.489Z,18.55
2022-10-18T07:45:23.246Z,19.83
2022-10-18T07:48:44.776Z,17.88
2022-10-18T07:52:08.799Z,13.82
2022-10-18T07:55:32.664Z,25.20
2022-10-18T07:58:56.193Z,22.85
2022-10-18T08:02:17.915Z,22.90
2022-10-18T08:05:39.494Z,22.95
2022-10-18T08:09:03.901Z,19.23
2022-10-18T08:12:32.748Z,10.18
2022-10-18T08:16:03.699Z,13.13
2022-10-18T08:19:25.270Z,13.93
2022-10-18T08:22:50.266Z,11.18
2022-10-18T08:26:16.662Z,10.63
2022-10-18T08:29:38.218Z,15.75
2022-10-18T08:32:59.806Z,12.48
2022-10-18T08:36:26.228Z,10.80
2022-10-18T08:39:47.736Z,14.88
2022-10-18T08:43:27.952Z,14.43
2022-10-18T08:46:56.063Z,14.77
2022-10-18T08:50:23.839Z,12.35
2022-10-18T08:54:05.181Z,9.05
2022-10-18T08:57:26.746Z,12.63
2022-10-18T09:01:09.175Z,8.50
2022-10-18T09:04:59.952Z,18.90
2022-10-18T09:08:30.550Z,7.45
2022-10-18T09:12:01.866Z,16.50
2022-10-18T09:16:00.237Z,7.78
2022-10-18T09:19:45.282Z,9.90
2022-10-18T09:23:23.026Z,9.30
2022-10-18T09:26:49.583Z,11.13
2022-10-18T09:30:28.262Z,8.73
2022-10-18T09:34:03.730Z,10.95
2022-10-18T09:37:27.472Z,8.95
2022-10-18T09:40:58.374Z,12.98
2022-10-18T09:44:31.860Z,11.10
2022-10-18T09:48:08.553Z,18.88
2022-10-18T09:51:36.206Z,8.45
2022-10-18T09:55:03.338Z,11.10
2022-10-18T09:58:28.531Z,9.20
2022-10-18T10:01:50.035Z,13.10
2022-10-18T10:05:15.222Z,13.68
2022-10-18T10:08:36.864Z,11.45
2022-10-18T10:11:58.834Z,6.65
2022-10-18T10:15:29.540Z,6.65
2022-10-18T10:18:54.894Z,7.93
2022-10-18T10:22:37.254Z,7.65
2022-10-18T10:26:04.088Z,9.82
2022-10-18T10:29:55.974Z,11.40
2022-10-18T10:33:38.139Z,6.53
2022-10-18T10:36:59.696Z,6.57
2022-10-18T10:40:25.240Z,9.02
2022-10-18T10:43:50.863Z,10.20
2022-10-18T10:47:31.769Z,11.43
2022-10-18T10:51:10.990Z,9.10
2022-10-18T10:54:36.734Z,8.68
2022-10-18T10:57:58.829Z,10.45
2022-10-18T11:01:29.274Z,6.45
2022-10-18T11:04:55.094Z,8.20
2022-10-18T11:08:23.909Z,14.32
2022-10-18T11:11:56.877Z,5.40
2022-10-18T11:15:36.512Z,5.13
2022-10-18T11:19:00.422Z,6.45
2022-10-18T11:22:25.977Z,10.98
2022-10-18T11:26:08.671Z,11.85
2022-10-18T11:29:54.272Z,8.38
2022-10-18T11:33:33.599Z,9.77
2022-10-18T11:37:31.029Z,15.07
2022-10-18T11:41:30.519Z,7.50
2022-10-18T11:45:10.907Z,6.07
2022-10-18T11:48:41.599Z,9.15
2022-10-18T11:52:48.198Z,6.30
2022-10-18T11:56:18.700Z,25.05
2022-10-18T11:59:52.578Z,10.70
2022-10-18T12:03:38.283Z,10.52
2022-10-18T12:07:06.580Z,13.05
2022-10-18T12:10:45.787Z,13.75
2022-10-18T12:14:42.425Z,9.07
2022-10-18T12:18:14.772Z,9.70
2022-10-18T12:21:39.191Z,12.30
2022-10-18T12:25:02.040Z,9.85
2022-10-18T12:28:32.786Z,11.15
2022-10-18T12:32:01.782Z,5.47
2022-10-18T12:35:28.227Z,10.88
2022-10-18T12:38:58.128Z,8.90
2022-10-18T12:42:24.903Z,13.43
2022-10-18T12:46:00.813Z,9.40
2022-10-18T12:49:34.810Z,7.35
2022-10-18T12:53:07.075Z,10.50
2022-10-18T12:56:28.572Z,5.70
2022-10-18T12:59:50.295Z,6.20
2022-10-18T13:03:17.971Z,10.00
2022-10-18T13:06:58.152Z,7.45
2022-10-18T13:10:37.949Z,10.23
2022-10-18T13:14:15.392Z,5.47
2022-10-18T13:18:10.546Z,12.47
2022-10-18T13:21:53.141Z,5.60
2022-10-18T13:25:21.370Z,7.15
2022-10-18T13:28:49.064Z,5.18
2022-10-18T13:32:30.102Z,5.78
2022-10-18T13:35:56.271Z,4.22
2022-10-18T13:39:20.102Z,9.30
2022-10-18T13:42:43.917Z,5.45
2022-10-18T13:46:07.764Z,6.43
2022-10-18T13:49:35.148Z,7.22
2022-10-18T13:53:02.748Z,4.85
2022-10-18T13:56:31.079Z,5.93
2022-10-18T14:00:01.243Z,7.60
2022-10-18T14:03:56.916Z,7.32
2022-10-18T14:07:19.515Z,5.05
2022-10-18T14:11:01.838Z,6.07
2022-10-18T14:14:36.539Z,11.10
2022-10-18T14:18:12.230Z,7.22
2022-10-18T14:21:38.781Z,6.40
2022-10-18T14:25:18.101Z,6.90
2022-10-18T14:28:58.653Z,7.13
2022-10-18T14:32:30.667Z,5.65
2022-10-18T14:36:12.947Z,8.75
2022-10-18T14:39:38.579Z,8.80
2022-10-18T14:43:06.379Z,7.95
2022-10-18T14:46:34.527Z,7.82
2022-10-18T14:49:57.810Z,7.45
2022-10-18T14:53:25.207Z,5.47
2022-10-18T14:56:47.731Z,5.78
2022-10-18T15:00:21.699Z,8.25
2022-10-18T15:03:44.329Z,9.40
2022-10-18T15:07:15.464Z,6.05
2022-10-18T15:10:37.136Z,7.63
2022-10-18T15:14:03.197Z,9.20
2022-10-18T15:17:27.787Z,5.63
2022-10-18T15:21:17.343Z,7.53
2022-10-18T15:24:41.650Z,5.40
2022-10-18T15:28:03.368Z,9.30
2022-10-18T15:31:27.694Z,9.23
2022-10-18T15:34:49.397Z,11.13
2022-10-18T15:38:28.579Z,11.55
2022-10-18T15:42:07.428Z,14.70
2022-10-18T15:45:34.634Z,12.25
2022-10-18T15:49:20.686Z,11.18
2022-10-18T15:52:43.757Z,12.38
2022-10-18T15:56:38.135Z,50.58
2022-10-18T16:00:07.967Z,46.90
2022-10-18T16:03:37.456Z,12.57
2022-10-18T16:07:00.285Z,10.88
2022-10-18T16:10:21.789Z,8.75
2022-10-18T16:13:44.206Z,10.10
2022-10-18T16:17:07.136Z,9.82
2022-10-18T16:20:31.308Z,15.55
2022-10-18T16:23:53.212Z,17.48
2022-10-18T16:27:14.706Z,19.40
2022-10-18T16:30:36.473Z,11.90
2022-10-18T16:33:59.065Z,18.10
2022-10-18T16:37:20.629Z,27.77
2022-10-18T16:40:45.150Z,21.55
2022-10-18T16:44:09.364Z,16.70
2022-10-18T16:47:30.866Z,18.17
2022-10-18T16:50:56.762Z,15.60
2022-10-18T16:54:18.294Z,20.10
2022-10-18T16:57:40.006Z,22.85
2022-10-18T17:01:06.705Z,15.85
2022-10-18T17:04:30.469Z,19.38
2022-10-18T17:07:54.266Z,18.35
2022-10-18T17:11:16.922Z,22.80
2022-10-18T17:14:38.499Z,22.67
2022-10-18T17:18:03.940Z,18.02
2022-10-18T17:21:26.771Z,18.13
2022-10-18T17:24:48.514Z,25.00
2022-10-18T17:28:15.273Z,19.77
2022-10-18T17:31:36.839Z,25.38
2022-10-18T17:34:59.472Z,27.48
2022-10-18T17:38:21.041Z,31.55
2022-10-18T17:41:44.818Z,27.08
2022-10-18T17:45:07.056Z,25.15
2022-10-18T17:48:29.176Z,24.50
2022-10-18T17:51:50.711Z,24.10
2022-10-18T17:55:15.298Z,22.17
2022-10-18T17:58:37.044Z,23.38
2022-10-18T18:01:58.687Z,23.02
2022-10-18T18:05:20.195Z,18.55
2022-10-18T18:08:41.714Z,23.85
2022-10-18T18:12:05.810Z,19.70
2022-10-18T18:15:30.535Z,24.60
2022-10-18T18:18:54.388Z,19.42
2022-10-18T18:22:15.944Z,15.13
2022-10-18T18:25:37.468Z,19.15
2022-10-18T18:28:59.700Z,20.13
2022-10-18T18:32:23.584Z,18.48
2022-10-18T18:35:57.266Z,19.35
2022-10-18T18:39:23.228Z,18.52
2022-10-18T18:43:01.425Z,17.58
2022-10-18T18:46:34.309Z,17.90
2022-10-18T18:49:57.893Z,21.67
2022-10-18T18:53:19.782Z,23.33
2022-10-18T18:56:42.349Z,25.10
2022-10-18T19:00:04.616Z,21.20
2022-10-18T19:03:29.587Z,16.63
2022-10-18T19:06:51.214Z,21.52
2022-10-18T19:10:15.064Z,19.42
2022-10-18T19:13:38.955Z,19.58
2022-10-18T19:17:01.528Z,24.15
2022-10-18T19:20:23.458Z,15.80
2022-10-18T19:23:45.002Z,21.73
2022-10-18T19:27:14.241Z,17.33
2022-10-18T19:30:36.100Z,16.05
2022-10-18T19:34:00.192Z,17.95
2022-10-18T19:37:26.626Z,23.13
2022-10-18T19:40:53.726Z,27.20
2022-10-18T19:44:19.034Z,20.30
2022-10-18T19:47:42.947Z,20.98
2022-10-18T19:51:09.753Z,23.80
2022-10-18T19:54:32.040Z,25.03
2022-10-18T19:57:56.975Z,23.88
2022-10-18T20:01:19.366Z,20.00
2022-10-18T20:04:41.061Z,24.70
2022-10-18T20:08:03.737Z,18.77
2022-10-18T20:11:27.970Z,28.27
2022-10-18T20:14:51.627Z,30.85
2022-10-18T20:18:13.153Z,22.20
2022-10-18T20:21:36.191Z,19.83
2022-10-18T20:25:02.662Z,21.17
2022-10-18T20:28:25.161Z,21.08
2022-10-18T20:31:48.897Z,17.98
2022-10-18T20:35:10.477Z,19.73
2022-10-18T20:38:37.304Z,19.33
2022-10-18T20:41:59.047Z,22.33
2022-10-18T20:45:20.662Z,18.88
2022-10-18T20:48:42.203Z,22.50
2022-10-18T20:52:03.807Z,20.77
2022-10-18T20:55:27.584Z,18.42
2022-10-18T20:58:53.987Z,19.58
2022-10-18T21:02:15.691Z,21.83
2022-10-18T21:05:37.216Z,28.80
2022-10-18T21:08:59.773Z,21.27
2022-10-18T21:12:25.497Z,24.13
2022-10-18T21:15:59.089Z,24.05
2022-10-18T21:19:23.777Z,37.60
2022-10-18T21:22:47.877Z,21.88
2022-10-18T21:26:17.698Z,27.92
2022-10-18T21:29:39.276Z,22.75
2022-10-18T21:33:00.799Z,28.33
2022-10-18T21:36:23.610Z,23.25
2022-10-18T21:39:48.127Z,26.63
2022-10-18T21:43:09.826Z,31.60
2022-10-18T21:46:31.565Z,25.55
2022-10-18T21:49:53.152Z,27.20
2022-10-18T21:53:17.127Z,24.35
2022-10-18T21:56:39.011Z,23.92
2022-10-18T22:00:00.527Z,25.35
2022-10-18T22:03:23.365Z,22.25
2022-10-18T22:06:45.022Z,24.80
2022-10-18T22:10:07.044Z,22.02
2022-10-18T22:13:30.997Z,26.25
2022-10-18T22:16:52.656Z,23.08
2022-10-18T22:20:14.175Z,30.20
2022-10-18T22:23:41.738Z,28.55
2022-10-18T22:27:06.250Z,29.70
2022-10-18T22:30:27.848Z,26.50
2022-10-18T22:34:00.142Z,25.13
2022-10-18T22:37:21.710Z,23.95
2022-10-18T22:40:43.225Z,27.30
2022-10-18T22:44:04.982Z,24.02
2022-10-18T22:47:26.504Z,24.88
2022-10-18T22:50:50.257Z,24.52
2022-10-18T22:54:11.849Z,24.05
2022-10-18T22:57:35.538Z,26.23
2022-10-18T23:01:08.667Z,24.45
2022-10-18T23:04:30.194Z,27.95
2022-10-18T23:07:54.723Z,29.10
2022-10-18T23:11:16.529Z,23.67
2022-10-18T23:14:38.041Z,25.77
2022-10-18T23:18:01.652Z,24.48
2022-10-18T23:21:24.740Z,28.75
2022-10-18T23:24:49.270Z,24.20
2022-10-18T23:28:10.771Z,25.88
2022-10-18T23:31:33.278Z,26.35
2022-10-18T23:34:54.805Z,28.30
2022-10-18T23:38:16.427Z,24.60
2022-10-18T23:41:37.960Z,25.98
2022-10-18T23:44:59.594Z,28.83
2022-10-18T23:48:21.093Z,23.05
2022-10-18T23:51:42.609Z,24.38
2022-10-18T23:55:04.468Z,24.85
2022-10-18T23:58:27.687Z,25.13
